createdAt,value
2023-02-22T00:00:49.108Z,20.45
2023-02-22T00:03:24.906Z,18.90
2023-02-22T00:05:55.229Z,20.25
2023-02-22T00:08:24.865Z,20.33
2023-02-22T00:10:53.098Z,20.15
2023-02-22T00:13:22.735Z,19.30
2023-02-22T00:15:52.782Z,20.45
2023-02-22T00:18:20.821Z,19.60
2023-02-22T00:20:48.851Z,25.83
2023-02-22T00:23:20.229Z,20.50
2023-02-22T00:25:48.933Z,19.00
2023-02-22T00:28:17.971Z,20.85
2023-02-22T00:30:48.338Z,23.33
2023-02-22T00:33:18.672Z,20.92
2023-02-22T00:35:46.951Z,21.05
2023-02-22T00:38:16.859Z,17.60
2023-02-22T00:40:45.474Z,17.60
2023-02-22T00:43:13.851Z,19.08
2023-02-22T00:45:42.700Z,19.65
2023-02-22T00:48:11.527Z,18.92
2023-02-22T00:50:41.001Z,22.63
2023-02-22T00:53:10.211Z,22.13
2023-02-22T00:55:39.135Z,23.38
2023-02-22T00:58:07.524Z,22.63
2023-02-22T01:00:38.198Z,24.27
2023-02-22T01:03:07.028Z,20.92
2023-02-22T01:05:36.106Z,21.13
2023-02-22T01:08:08.859Z,25.58
2023-02-22T01:10:38.146Z,22.58
2023-02-22T01:13:09.263Z,26.98
2023-02-22T01:15:39.153Z,25.52
2023-02-22T01:18:07.500Z,26.60
2023-02-22T01:20:35.474Z,27.65
2023-02-22T01:23:06.548Z,28.27
2023-02-22T01:25:37.115Z,24.48
2023-02-22T01:28:07.133Z,23.65
2023-02-22T01:30:36.919Z,24.58
2023-02-22T01:33:07.119Z,23.33
2023-02-22T01:35:36.649Z,31.00
2023-02-22T01:38:04.519Z,23.75
2023-02-22T01:40:37.361Z,25.23
2023-02-22T01:43:15.409Z,26.50
2023-02-22T01:45:53.892Z,26.75
2023-02-22T01:48:26.926Z,26.73
2023-02-22T01:50:58.592Z,26.02
2023-02-22T01:53:31.366Z,27.88
2023-02-22T01:56:02.523Z,29.05
2023-02-22T01:58:34.516Z,28.60
2023-02-22T02:01:02.551Z,28.73
2023-02-22T02:03:34.264Z,29.52
2023-02-22T02:06:06.500Z,30.75
2023-02-22T02:08:37.863Z,29.15
2023-02-22T02:11:10.623Z,29.63
2023-02-22T02:13:38.644Z,23.80
2023-02-22T02:16:06.746Z,29.25
2023-02-22T02:18:34.857Z,32.78
2023-02-22T02:21:32.043Z,30.00
2023-02-22T02:24:35.320Z,34.70
2023-02-22T02:27:17.622Z,32.47
2023-02-22T02:30:25.430Z,33.40
2023-02-22T02:33:00.857Z,31.45
2023-02-22T02:35:41.594Z,28.35
2023-02-22T02:38:17.087Z,27.60
2023-02-22T02:40:49.923Z,29.30
2023-02-22T02:43:28.122Z,27.40
2023-02-22T02:46:02.245Z,28.75
2023-02-22T02:48:34.735Z,28.67
2023-02-22T02:51:08.938Z,27.27
2023-02-22T02:53:40.392Z,27.65
2023-02-22T02:56:08.599Z,30.75
2023-02-22T02:58:49.001Z,27.00
2023-02-22T03:01:29.273Z,26.73
2023-02-22T03:04:31.605Z,29.70
2023-02-22T03:07:23.613Z,25.00
2023-02-22T03:10:13.078Z,28.20
2023-02-22T03:12:49.346Z,24.77
2023-02-22T03:15:32.396Z,25.63
2023-02-22T03:18:06.707Z,27.17
2023-02-22T03:20:43.935Z,25.95
2023-02-22T03:23:17.003Z,26.95
2023-02-22T03:25:50.289Z,29.13
2023-02-22T03:28:20.766Z,29.92
2023-02-22T03:30:54.591Z,27.40
2023-02-22T03:33:34.001Z,24.55
2023-02-22T03:36:12.475Z,26.00
2023-02-22T03:38:43.666Z,24.75
2023-02-22T03:41:19.757Z,25.63
2023-02-22T03:43:50.722Z,26.60
2023-02-22T03:46:20.235Z,24.75
2023-02-22T03:48:55.270Z,25.10
2023-02-22T03:51:25.539Z,24.85
2023-02-22T03:53:58.771Z,22.88
2023-02-22T03:56:37.335Z,21.80
2023-02-22T03:59:07.740Z,25.45
2023-02-22T04:01:36.403Z,24.20
2023-02-22T04:04:05.608Z,25.92
2023-02-22T04:06:35.802Z,23.27
2023-02-22T04:09:04.802Z,21.95
2023-02-22T04:11:33.157Z,23.42
2023-02-22T04:14:01.211Z,25.58
2023-02-22T04:16:30.876Z,23.58
2023-02-22T04:18:58.765Z,24.48
2023-02-22T04:21:26.965Z,26.38
2023-02-22T04:23:56.320Z,24.27
2023-02-22T04:26:24.443Z,27.05
2023-02-22T04:28:56.483Z,27.55
2023-02-22T04:31:25.934Z,24.98
2023-02-22T04:33:56.182Z,28.83
2023-02-22T04:36:31.801Z,25.13
2023-02-22T04:39:02.671Z,24.52
2023-02-22T04:41:32.139Z,27.98
2023-02-22T04:44:00.107Z,26.27
2023-02-22T04:46:29.231Z,28.70
2023-02-22T04:48:57.781Z,28.33
2023-02-22T04:51:29.439Z,25.08
2023-02-22T04:54:04.686Z,30.00
2023-02-22T04:56:35.532Z,26.77
2023-02-22T04:59:03.310Z,29.73
2023-02-22T05:01:33.512Z,26.00
2023-02-22T05:04:03.176Z,24.85
2023-02-22T05:06:32.045Z,26.83
2023-02-22T05:09:00.023Z,29.17
2023-02-22T05:11:29.975Z,25.30
2023-02-22T05:13:58.163Z,28.00
2023-02-22T05:16:26.510Z,27.80
2023-02-22T05:18:54.275Z,26.80
2023-02-22T05:21:22.048Z,24.83
2023-02-22T05:23:49.931Z,27.30
2023-02-22T05:26:18.829Z,26.33
2023-02-22T05:28:47.957Z,24.98
2023-02-22T05:31:16.055Z,22.52
2023-02-22T05:33:44.035Z,25.05
2023-02-22T05:36:11.766Z,26.40
2023-02-22T05:38:43.209Z,28.33
2023-02-22T05:41:12.071Z,23.02
2023-02-22T05:43:40.728Z,22.02
2023-02-22T05:46:11.075Z,22.08
2023-02-22T05:48:38.934Z,22.23
2023-02-22T05:51:07.405Z,20.40
2023-02-22T05:53:35.134Z,26.33
2023-02-22T05:56:03.110Z,25.98
2023-02-22T05:58:32.263Z,24.08
2023-02-22T06:01:02.194Z,20.63
2023-02-22T06:03:32.747Z,23.08
2023-02-22T06:06:00.463Z,20.92
2023-02-22T06:08:28.345Z,23.23
2023-02-22T06:10:56.531Z,20.75
2023-02-22T06:13:24.470Z,21.20
2023-02-22T06:15:52.173Z,19.40
2023-02-22T06:18:20.061Z,20.60
2023-02-22T06:20:49.510Z,20.02
2023-02-22T06:23:17.362Z,16.63
2023-02-22T06:25:45.542Z,18.45
2023-02-22T06:28:14.252Z,22.17
2023-02-22T06:30:43.066Z,19.30
2023-02-22T06:33:12.314Z,18.75
2023-02-22T06:35:40.504Z,17.55
2023-02-22T06:38:09.569Z,21.48
2023-02-22T06:40:37.327Z,16.98
2023-02-22T06:43:05.195Z,18.05
2023-02-22T06:45:33.409Z,17.10
2023-02-22T06:48:01.203Z,19.35
2023-02-22T06:50:33.221Z,17.13
2023-02-22T06:53:02.057Z,16.27
2023-02-22T06:55:33.582Z,19.13
2023-02-22T06:58:01.634Z,20.88
2023-02-22T07:00:32.531Z,19.38
2023-02-22T07:03:01.070Z,17.45
2023-02-22T07:05:29.944Z,17.73
2023-02-22T07:08:06.910Z,21.67
2023-02-22T07:10:37.457Z,23.02
2023-02-22T07:13:07.211Z,16.90
2023-02-22T07:15:40.270Z,17.38
2023-02-22T07:18:10.041Z,17.17
2023-02-22T07:21:03.046Z,23.05
2023-02-22T07:23:33.073Z,19.25
2023-02-22T07:26:03.558Z,17.50
2023-02-22T07:28:31.964Z,24.50
2023-02-22T07:31:01.393Z,17.27
2023-02-22T07:33:29.204Z,16.13
2023-02-22T07:35:56.983Z,24.10
2023-02-22T07:38:24.848Z,20.58
2023-02-22T07:40:52.624Z,19.13
2023-02-22T07:43:23.368Z,16.80
2023-02-22T07:45:55.710Z,19.70
2023-02-22T07:48:25.200Z,22.23
2023-02-22T07:50:53.298Z,16.00
2023-02-22T07:53:22.465Z,18.13
2023-02-22T07:55:51.037Z,16.80
2023-02-22T07:58:22.441Z,15.30
2023-02-22T08:00:50.494Z,18.05
2023-02-22T08:03:20.163Z,18.58
2023-02-22T08:05:50.383Z,16.67
2023-02-22T08:08:20.015Z,20.75
2023-02-22T08:10:48.804Z,19.10
2023-02-22T08:13:18.151Z,20.67
2023-02-22T08:15:48.573Z,19.63
2023-02-22T08:18:19.676Z,21.02
2023-02-22T08:20:49.818Z,20.85
2023-02-22T08:23:20.241Z,21.85
2023-02-22T08:25:48.043Z,22.55
2023-02-22T08:28:18.854Z,20.55
2023-02-22T08:30:48.099Z,21.75
2023-02-22T08:33:19.574Z,24.20
2023-02-22T08:35:50.009Z,23.55
2023-02-22T08:38:21.897Z,22.27
2023-02-22T08:40:50.676Z,25.50
2023-02-22T08:43:20.628Z,25.02
2023-02-22T08:45:51.641Z,24.80
2023-02-22T08:48:21.036Z,24.13
2023-02-22T08:50:48.886Z,22.25
2023-02-22T08:53:17.994Z,23.02
2023-02-22T08:55:46.591Z,29.15
2023-02-22T08:58:14.943Z,20.77
2023-02-22T09:00:44.857Z,23.38
2023-02-22T09:03:16.029Z,25.10
2023-02-22T09:05:44.867Z,25.20
2023-02-22T09:08:13.356Z,24.00
2023-02-22T09:10:41.764Z,21.90
2023-02-22T09:13:09.672Z,22.92
2023-02-22T09:15:37.716Z,20.40
2023-02-22T09:18:08.485Z,24.60
2023-02-22T09:20:38.087Z,22.88
2023-02-22T09:23:06.997Z,22.63
2023-02-22T09:25:36.034Z,25.52
2023-02-22T09:28:03.949Z,25.58
2023-02-22T09:30:34.321Z,23.58
2023-02-22T09:33:04.423Z,21.52
2023-02-22T09:35:36.139Z,23.50
2023-02-22T09:38:07.163Z,28.30
2023-02-22T09:40:41.213Z,25.90
2023-02-22T09:43:23.039Z,25.23
2023-02-22T09:46:06.341Z,26.25
2023-02-22T09:48:37.941Z,23.40
2023-02-22T09:51:12.602Z,24.90
2023-02-22T09:53:46.352Z,22.65
2023-02-22T09:56:17.442Z,24.27
2023-02-22T09:58:48.520Z,23.67
2023-02-22T10:01:26.935Z,30.13
2023-02-22T10:04:01.281Z,23.48
2023-02-22T10:06:29.643Z,26.08
2023-02-22T10:09:07.645Z,25.00
2023-02-22T10:11:50.774Z,23.10
2023-02-22T10:14:53.410Z,23.27
2023-02-22T10:17:33.326Z,22.90
2023-02-22T10:20:14.897Z,22.27
2023-02-22T10:22:56.770Z,24.88
2023-02-22T10:25:28.551Z,22.63
2023-02-22T10:27:59.912Z,20.75
2023-02-22T10:30:33.786Z,22.02
2023-02-22T10:33:09.508Z,21.00
2023-02-22T10:35:41.368Z,25.08
2023-02-22T10:38:16.588Z,21.95
2023-02-22T10:40:50.767Z,22.50
2023-02-22T10:43:18.765Z,26.27
2023-02-22T10:45:46.701Z,24.17
2023-02-22T10:48:18.363Z,21.27
2023-02-22T10:50:47.781Z,23.40
2023-02-22T10:53:16.393Z,22.70
2023-02-22T10:56:11.686Z,20.58
2023-02-22T10:58:44.531Z,21.05
2023-02-22T11:01:26.321Z,22.83
2023-02-22T11:04:04.025Z,20.30
2023-02-22T11:06:34.996Z,24.83
2023-02-22T11:09:10.258Z,24.20
2023-02-22T11:11:41.164Z,18.63
2023-02-22T11:14:10.718Z,22.48
2023-02-22T11:16:41.971Z,21.40
2023-02-22T11:19:20.578Z,18.83
2023-02-22T11:21:51.388Z,18.25
2023-02-22T11:24:24.176Z,20.75
2023-02-22T11:26:56.565Z,21.13
2023-02-22T11:29:31.871Z,21.90
2023-02-22T11:32:03.519Z,20.98
2023-02-22T11:34:37.535Z,21.45
2023-02-22T11:37:26.062Z,20.92
2023-02-22T11:40:06.737Z,18.27
2023-02-22T11:42:36.655Z,18.23
2023-02-22T11:45:14.182Z,19.55
2023-02-22T11:47:53.461Z,16.48
2023-02-22T11:50:30.342Z,18.67
2023-02-22T11:53:25.453Z,25.27
2023-02-22T11:56:04.604Z,20.95
2023-02-22T11:58:45.553Z,21.02
2023-02-22T12:01:22.823Z,20.48
2023-02-22T12:04:36.555Z,23.77
2023-02-22T12:07:18.598Z,20.83
2023-02-22T12:09:55.975Z,19.25
2023-02-22T12:12:34.595Z,18.27
2023-02-22T12:15:13.863Z,15.43
2023-02-22T12:18:00.108Z,14.98
2023-02-22T12:20:33.523Z,14.32
2023-02-22T12:23:13.816Z,14.73
2023-02-22T12:25:48.072Z,18.33
2023-02-22T12:28:24.784Z,19.98
2023-02-22T12:31:04.559Z,15.48
2023-02-22T12:33:42.513Z,17.67
2023-02-22T12:36:16.975Z,20.40
2023-02-22T12:38:52.930Z,16.77
2023-02-22T12:41:27.931Z,20.10
2023-02-22T12:44:01.187Z,16.98
2023-02-22T12:46:35.806Z,16.27
2023-02-22T12:49:13.340Z,19.08
2023-02-22T12:51:46.210Z,20.42
2023-02-22T12:54:22.757Z,18.52
2023-02-22T12:56:54.524Z,19.20
2023-02-22T12:59:30.615Z,18.98
2023-02-22T13:02:09.891Z,17.63
2023-02-22T13:04:40.407Z,19.05
2023-02-22T13:07:20.057Z,17.45
2023-02-22T13:10:15.057Z,17.92
2023-02-22T13:12:52.585Z,26.00
2023-02-22T13:15:28.309Z,21.45
2023-02-22T13:18:07.865Z,19.50
2023-02-22T13:20:45.869Z,19.02
2023-02-22T13:23:25.306Z,21.20
2023-02-22T13:26:01.782Z,19.13
2023-02-22T13:28:37.442Z,19.70
2023-02-22T13:31:28.883Z,22.98
2023-02-22T13:34:28.711Z,20.25
2023-02-22T13:37:17.923Z,19.77
2023-02-22T13:40:23.684Z,21.58
2023-02-22T13:43:19.928Z,19.42
2023-02-22T13:46:04.243Z,21.33
2023-02-22T13:49:16.379Z,20.70
2023-02-22T13:51:49.345Z,23.20
2023-02-22T13:54:25.199Z,19.55
2023-02-22T13:56:57.749Z,20.35
2023-02-22T13:59:30.037Z,21.17
2023-02-22T14:01:59.375Z,22.90
2023-02-22T14:04:47.061Z,16.30
2023-02-22T14:07:55.918Z,21.38
2023-02-22T14:10:43.529Z,21.25
2023-02-22T14:13:12.734Z,18.77
2023-02-22T14:16:14.086Z,20.38
2023-02-22T14:18:44.805Z,17.33
2023-02-22T14:21:16.875Z,17.42
2023-02-22T14:23:47.798Z,19.52
2023-02-22T14:26:27.462Z,20.25
2023-02-22T14:28:59.119Z,21.48
2023-02-22T14:31:36.637Z,21.92
2023-02-22T14:34:13.059Z,22.45
2023-02-22T14:36:52.512Z,18.33
2023-02-22T14:39:27.031Z,19.27
2023-02-22T14:42:01.508Z,18.88
2023-02-22T14:44:41.110Z,20.80
2023-02-22T14:47:18.418Z,17.25
2023-02-22T14:49:50.380Z,25.10
2023-02-22T14:52:25.669Z,18.17
2023-02-22T14:55:04.335Z,18.48
2023-02-22T14:57:43.878Z,18.23
2023-02-22T15:00:30.630Z,18.92
2023-02-22T15:03:01.654Z,17.27
2023-02-22T15:05:43.588Z,19.08
2023-02-22T15:08:17.710Z,18.55
2023-02-22T15:10:48.152Z,18.77
2023-02-22T15:13:20.687Z,16.92
2023-02-22T15:15:51.228Z,19.42
2023-02-22T15:18:23.594Z,17.23
2023-02-22T15:20:56.131Z,21.10
2023-02-22T15:23:31.282Z,18.90
2023-02-22T15:26:00.115Z,16.42
2023-02-22T15:28:31.385Z,20.52
2023-02-22T15:31:26.419Z,18.73
2023-02-22T15:33:55.619Z,16.08
2023-02-22T15:36:28.797Z,15.00
2023-02-22T15:38:58.524Z,19.20
2023-02-22T15:41:31.799Z,15.55
2023-02-22T15:44:17.749Z,15.63
2023-02-22T15:46:51.304Z,15.43
2023-02-22T15:49:23.389Z,17.15
2023-02-22T15:52:04.996Z,18.25
2023-02-22T15:54:43.900Z,13.95
2023-02-22T15:57:17.123Z,16.27
2023-02-22T15:59:50.541Z,17.35
2023-02-22T16:02:31.421Z,15.25
2023-02-22T16:05:03.172Z,16.80
2023-02-22T16:07:32.224Z,15.23
2023-02-22T16:10:09.253Z,12.50
2023-02-22T16:12:40.256Z,11.70
2023-02-22T16:15:19.631Z,18.20
2023-02-22T16:18:02.169Z,14.60
2023-02-22T16:20:33.766Z,17.65
2023-02-22T16:23:22.948Z,13.60
2023-02-22T16:26:07.098Z,16.20
2023-02-22T16:28:37.766Z,14.65
2023-02-22T16:31:10.346Z,16.35
2023-02-22T16:33:41.395Z,16.42
2023-02-22T16:36:12.362Z,14.55
2023-02-22T16:38:44.449Z,14.98
2023-02-22T16:41:19.707Z,14.32
2023-02-22T16:43:51.520Z,14.07
2023-02-22T16:46:20.734Z,14.50
2023-02-22T16:48:49.449Z,13.10
2023-02-22T16:51:23.786Z,16.13
2023-02-22T16:53:56.011Z,17.70
2023-02-22T16:56:31.256Z,16.35
2023-02-22T16:59:10.953Z,19.70
2023-02-22T17:01:39.704Z,18.40
2023-02-22T17:04:15.842Z,19.20
2023-02-22T17:06:45.958Z,18.25
2023-02-22T17:09:15.480Z,19.83
2023-02-22T17:11:46.501Z,18.55
2023-02-22T17:14:19.288Z,18.40
2023-02-22T17:16:48.132Z,20.17
2023-02-22T17:19:19.149Z,17.10
2023-02-22T17:21:47.984Z,19.63
2023-02-22T17:24:18.440Z,18.17
2023-02-22T17:26:49.181Z,18.38
2023-02-22T17:29:18.804Z,20.30
2023-02-22T17:31:49.052Z,21.83
2023-02-22T17:34:17.923Z,25.33
2023-02-22T17:36:48.599Z,17.00
2023-02-22T17:39:17.345Z,23.52
2023-02-22T17:41:55.048Z,22.13
2023-02-22T17:44:23.340Z,23.02
2023-02-22T17:46:52.940Z,21.90
2023-02-22T17:49:21.080Z,26.60
2023-02-22T17:51:53.168Z,22.15
2023-02-22T17:54:21.649Z,26.83
2023-02-22T17:56:52.138Z,24.98
2023-02-22T17:59:20.340Z,27.10
2023-02-22T18:01:48.929Z,21.83
2023-02-22T18:04:16.630Z,23.77
2023-02-22T18:06:44.372Z,26.23
2023-02-22T18:09:17.568Z,27.63
2023-02-22T18:11:45.613Z,29.88
2023-02-22T18:14:14.767Z,34.90
2023-02-22T18:16:43.025Z,28.67
2023-02-22T18:19:10.767Z,29.20
2023-02-22T18:21:39.836Z,31.00
2023-02-22T18:24:08.430Z,29.42
2023-02-22T18:26:38.935Z,32.30
2023-02-22T18:29:06.997Z,31.17
2023-02-22T18:31:36.543Z,27.98
2023-02-22T18:34:05.350Z,31.15
2023-02-22T18:36:33.029Z,30.20
2023-02-22T18:39:00.804Z,33.10
2023-02-22T18:41:28.951Z,34.85
2023-02-22T18:44:00.295Z,32.70
2023-02-22T18:46:29.959Z,26.95
2023-02-22T18:48:59.829Z,30.58
2023-02-22T18:51:28.548Z,29.17
2023-02-22T18:54:00.849Z,29.77
2023-02-22T18:56:30.759Z,34.33
2023-02-22T18:59:00.958Z,31.30
2023-02-22T19:01:30.009Z,33.58
2023-02-22T19:04:02.133Z,34.00
2023-02-22T19:06:30.229Z,31.90
2023-02-22T19:09:01.644Z,33.50
2023-02-22T19:11:30.439Z,36.45
2023-02-22T19:14:04.284Z,34.83
2023-02-22T19:16:33.154Z,29.58
2023-02-22T19:19:03.271Z,35.08
2023-02-22T19:21:33.516Z,33.45
2023-02-22T19:24:02.256Z,32.35
2023-02-22T19:26:31.181Z,37.60
2023-02-22T19:29:04.934Z,32.33
2023-02-22T19:31:34.654Z,33.25
2023-02-22T19:34:08.773Z,32.40
2023-02-22T19:36:40.934Z,32.17
2023-02-22T19:39:09.664Z,38.42
2023-02-22T19:41:38.820Z,34.22
2023-02-22T19:44:07.989Z,37.83
2023-02-22T19:46:37.801Z,33.33
2023-02-22T19:49:09.602Z,37.90
2023-02-22T19:51:38.321Z,36.38
2023-02-22T19:54:09.547Z,37.35
2023-02-22T19:56:37.698Z,35.85
2023-02-22T19:59:12.818Z,36.75
2023-02-22T20:01:46.826Z,39.20
2023-02-22T20:04:21.838Z,37.85
2023-02-22T20:06:54.840Z,40.13
2023-02-22T20:09:29.827Z,37.10
2023-02-22T20:11:59.730Z,39.03
2023-02-22T20:14:30.474Z,38.35
2023-02-22T20:17:00.098Z,38.42
2023-02-22T20:19:30.859Z,41.63
2023-02-22T20:22:00.330Z,36.90
2023-02-22T20:24:29.921Z,37.55
2023-02-22T20:27:00.709Z,41.05
2023-02-22T20:29:33.045Z,40.40
2023-02-22T20:32:04.765Z,39.35
2023-02-22T20:34:36.766Z,37.47
2023-02-22T20:37:08.066Z,44.72
2023-02-22T20:39:36.252Z,43.78
2023-02-22T20:42:06.892Z,54.72
2023-02-22T20:44:35.423Z,48.45
2023-02-22T20:47:06.231Z,44.83
2023-02-22T20:49:36.150Z,42.17
2023-02-22T20:52:05.911Z,42.55
2023-02-22T20:54:36.824Z,40.33
2023-02-22T20:57:08.250Z,43.15
2023-02-22T20:59:36.957Z,39.75
2023-02-22T21:02:06.324Z,41.13
2023-02-22T21:04:37.692Z,44.33
2023-02-22T21:07:05.859Z,45.70
2023-02-22T21:09:35.392Z,44.63
2023-02-22T21:12:08.182Z,41.55
2023-02-22T21:14:40.599Z,40.92
2023-02-22T21:17:12.202Z,41.85
2023-02-22T21:19:44.923Z,39.05
2023-02-22T21:22:13.207Z,39.80
2023-02-22T21:24:49.726Z,39.60
2023-02-22T21:27:17.858Z,41.10
2023-02-22T21:29:46.477Z,41.13
2023-02-22T21:32:15.238Z,42.40
2023-02-22T21:34:46.005Z,38.35
2023-02-22T21:37:18.516Z,39.33
2023-02-22T21:39:50.297Z,38.63
2023-02-22T21:42:18.594Z,37.42
2023-02-22T21:44:54.370Z,39.40
2023-02-22T21:47:22.602Z,37.53
2023-02-22T21:49:52.810Z,35.80
2023-02-22T21:52:20.905Z,39.60
2023-02-22T21:54:49.548Z,41.53
2023-02-22T21:57:18.037Z,39.00
2023-02-22T21:59:46.132Z,39.40
2023-02-22T22:02:14.182Z,35.53
2023-02-22T22:04:46.223Z,38.97
2023-02-22T22:07:15.594Z,43.35
2023-02-22T22:09:44.681Z,36.10
2023-02-22T22:12:16.771Z,36.17
2023-02-22T22:14:46.464Z,39.65
2023-02-22T22:17:14.317Z,37.17
2023-02-22T22:19:44.481Z,42.00
2023-02-22T22:22:12.822Z,36.47
2023-02-22T22:24:45.695Z,38.65
2023-02-22T22:27:13.487Z,38.47
2023-02-22T22:29:43.354Z,38.20
2023-02-22T22:32:11.707Z,37.58
2023-02-22T22:34:40.011Z,38.90
2023-02-22T22:37:08.611Z,36.55
2023-02-22T22:39:36.498Z,39.80
2023-02-22T22:42:05.773Z,40.35
2023-02-22T22:44:42.281Z,38.03
2023-02-22T22:47:12.166Z,33.55
2023-02-22T22:49:41.137Z,37.30
2023-02-22T22:52:10.323Z,36.35
2023-02-22T22:54:38.762Z,37.83
2023-02-22T22:57:07.969Z,38.85
2023-02-22T22:59:36.352Z,38.28
2023-02-22T23:02:10.479Z,38.72
2023-02-22T23:04:38.732Z,40.53
2023-02-22T23:07:07.092Z,41.47
2023-02-22T23:09:37.456Z,37.67
2023-02-22T23:12:09.689Z,43.25
2023-02-22T23:14:44.009Z,42.22
2023-02-22T23:17:15.853Z,40.83
2023-02-22T23:19:45.897Z,40.65
2023-02-22T23:22:15.164Z,40.60
2023-02-22T23:24:45.039Z,42.15
2023-02-22T23:27:14.304Z,41.90
2023-02-22T23:29:46.379Z,43.53
2023-02-22T23:32:14.993Z,40.40
2023-02-22T23:34:44.132Z,43.75
2023-02-22T23:37:14.017Z,41.03
2023-02-22T23:39:42.174Z,43.28
2023-02-22T23:42:09.905Z,42.92
2023-02-22T23:44:40.367Z,46.00
2023-02-22T23:47:09.591Z,45.67
2023-02-22T23:49:38.773Z,53.85
2023-02-22T23:52:07.818Z,48.03
2023-02-22T23:54:40.206Z,43.88
2023-02-22T23:57:09.120Z,44.20
2023-02-22T23:59:40.475Z,46.47
